createdAt,value
2022-09-20T00:00:48.123Z,10.10
2022-09-20T00:03:15.917Z,10.12
2022-09-20T00:05:44.363Z,10.16
2022-09-20T00:08:15.277Z,10.22
2022-09-20T00:10:42.981Z,10.26
2022-09-20T00:13:11.799Z,10.30
2022-09-20T00:15:43.751Z,10.35
2022-09-20T00:18:10.349Z,10.37
2022-09-20T00:20:37.444Z,10.40
2022-09-20T00:23:03.844Z,10.41
2022-09-20T00:25:30.239Z,10.43
2022-09-20T00:27:56.597Z,10.45
2022-09-20T00:30:23.140Z,10.45
2022-09-20T00:32:49.513Z,10.46
2022-09-20T00:35:15.970Z,10.46
2022-09-20T00:37:43.424Z,10.47
2022-09-20T00:40:13.883Z,10.48
2022-09-20T00:42:40.981Z,10.47
2022-09-20T00:45:14.795Z,10.46
2022-09-20T00:47:49.094Z,10.47
2022-09-20T00:50:27.230Z,10.45
2022-09-20T00:53:19.383Z,10.45
2022-09-20T00:55:59.926Z,10.43
2022-09-20T00:58:28.845Z,10.40
2022-09-20T01:00:57.672Z,10.38
2022-09-20T01:03:30.076Z,10.37
2022-09-20T01:05:57.833Z,10.35
2022-09-20T01:08:25.369Z,10.32
2022-09-20T01:10:52.923Z,10.29
2022-09-20T01:13:19.298Z,10.27
2022-09-20T01:15:48.422Z,10.22
2022-09-20T01:18:16.433Z,10.18
2022-09-20T01:20:45.184Z,10.17
2022-09-20T01:23:40.735Z,10.14
2022-09-20T01:26:44.998Z,10.13
2022-09-20T01:29:26.935Z,10.13
2022-09-20T01:31:56.423Z,10.16
2022-09-20T01:34:34.706Z,10.15
2022-09-20T01:37:14.323Z,10.15
2022-09-20T01:40:02.708Z,10.19
2022-09-20T01:42:36.129Z,10.20
2022-09-20T01:45:23.555Z,10.22
2022-09-20T01:48:18.059Z,10.23
2022-09-20T01:50:53.728Z,10.21
2022-09-20T01:53:38.501Z,10.19
2022-09-20T01:56:52.507Z,10.18
2022-09-20T01:59:43.621Z,10.15
2022-09-20T02:02:24.028Z,10.12
2022-09-20T02:05:12.813Z,10.11
2022-09-20T02:08:24.527Z,10.10
2022-09-20T02:11:06.572Z,10.10
2022-09-20T02:13:39.201Z,10.10
2022-09-20T02:16:27.031Z,10.12
2022-09-20T02:19:31.540Z,10.13
2022-09-20T02:22:28.302Z,10.14
2022-09-20T02:25:13.637Z,10.14
2022-09-20T02:28:09.801Z,10.14
2022-09-20T02:30:58.339Z,10.12
2022-09-20T02:33:54.001Z,10.08
2022-09-20T02:36:23.435Z,10.04
2022-09-20T02:39:14.786Z,9.99
2022-09-20T02:41:54.571Z,9.93
2022-09-20T02:44:39.394Z,9.85
2022-09-20T02:47:30.552Z,9.78
2022-09-20T02:50:15.204Z,9.70
2022-09-20T02:53:18.937Z,9.65
2022-09-20T02:55:59.772Z,9.60
2022-09-20T02:58:40.134Z,9.53
2022-09-20T03:01:25.148Z,9.47
2022-09-20T03:04:11.208Z,9.42
2022-09-20T03:06:53.346Z,9.38
2022-09-20T03:09:47.364Z,9.33
2022-09-20T03:12:29.355Z,9.27
2022-09-20T03:15:28.800Z,9.20
2022-09-20T03:18:11.293Z,9.17
2022-09-20T03:20:58.037Z,9.15
2022-09-20T03:23:48.930Z,9.14
2022-09-20T03:26:26.910Z,9.11
2022-09-20T03:28:59.978Z,9.08
2022-09-20T03:31:29.309Z,9.07
2022-09-20T03:34:20.739Z,9.04
2022-09-20T03:37:13.778Z,9.00
2022-09-20T03:40:00.670Z,8.98
2022-09-20T03:42:29.741Z,8.94
2022-09-20T03:45:26.411Z,8.90
2022-09-20T03:48:30.610Z,8.88
2022-09-20T03:51:08.592Z,8.88
2022-09-20T03:54:01.005Z,8.87
2022-09-20T03:57:03.954Z,8.83
2022-09-20T03:59:58.857Z,8.78
2022-09-20T04:02:44.267Z,8.75
2022-09-20T04:05:18.639Z,8.71
2022-09-20T04:07:51.799Z,8.68
2022-09-20T04:11:03.558Z,8.65
2022-09-20T04:13:47.727Z,8.63
2022-09-20T04:16:39.662Z,8.60
2022-09-20T04:19:24.453Z,8.58
2022-09-20T04:21:57.851Z,8.55
2022-09-20T04:24:30.509Z,8.53
2022-09-20T04:27:01.442Z,8.51
2022-09-20T04:29:48.204Z,8.49
2022-09-20T04:32:46.727Z,8.46
2022-09-20T04:35:52.035Z,8.42
2022-09-20T04:38:20.812Z,8.43
2022-09-20T04:41:18.412Z,8.44
2022-09-20T04:43:56.883Z,8.46
2022-09-20T04:46:37.231Z,8.48
2022-09-20T04:49:45.100Z,8.46
2022-09-20T04:52:24.986Z,8.45
2022-09-20T04:55:14.203Z,8.37
2022-09-20T04:57:58.716Z,8.33
2022-09-20T05:00:50.906Z,8.33
2022-09-20T05:03:35.738Z,8.33
2022-09-20T05:06:23.667Z,8.35
2022-09-20T05:09:33.303Z,8.48
2022-09-20T05:12:38.027Z,8.58
2022-09-20T05:15:38.564Z,8.62
2022-09-20T05:18:42.369Z,8.64
2022-09-20T05:21:45.378Z,8.65
2022-09-20T05:24:31.445Z,8.64
2022-09-20T05:27:19.596Z,8.64
2022-09-20T05:29:49.124Z,8.63
2022-09-20T05:32:29.210Z,8.66
2022-09-20T05:35:06.875Z,8.68
2022-09-20T05:38:24.766Z,8.69
2022-09-20T05:41:15.693Z,8.73
2022-09-20T05:44:04.714Z,8.75
2022-09-20T05:46:34.498Z,8.76
2022-09-20T05:49:19.759Z,8.75
2022-09-20T05:52:05.630Z,8.77
2022-09-20T05:54:56.525Z,8.77
2022-09-20T05:58:10.498Z,8.80
2022-09-20T06:00:45.553Z,8.88
2022-09-20T06:03:30.543Z,8.98
2022-09-20T06:06:22.841Z,9.04
2022-09-20T06:09:10.596Z,9.10
2022-09-20T06:11:55.773Z,9.16
2022-09-20T06:14:34.635Z,9.24
2022-09-20T06:17:27.589Z,9.32
2022-09-20T06:20:31.898Z,9.38
2022-09-20T06:23:01.235Z,9.46
2022-09-20T06:25:56.302Z,9.52
2022-09-20T06:28:45.674Z,9.59
2022-09-20T06:31:12.205Z,9.68
2022-09-20T06:33:49.965Z,9.78
2022-09-20T06:36:41.630Z,9.89
2022-09-20T06:39:58.007Z,10.00
2022-09-20T06:42:27.178Z,10.12
2022-09-20T06:44:54.268Z,10.19
2022-09-20T06:47:21.753Z,10.28
2022-09-20T06:49:50.394Z,10.41
2022-09-20T06:52:18.571Z,10.52
2022-09-20T06:54:54.118Z,10.71
2022-09-20T06:57:35.089Z,11.16
2022-09-20T07:00:02.462Z,11.30
2022-09-20T07:02:28.860Z,11.46
2022-09-20T07:04:55.272Z,11.70
2022-09-20T07:07:21.767Z,12.04
2022-09-20T07:09:48.200Z,13.01
2022-09-20T07:12:14.698Z,14.00
2022-09-20T07:14:41.732Z,13.89
2022-09-20T07:17:08.073Z,13.98
2022-09-20T07:19:35.118Z,14.81
2022-09-20T07:22:01.461Z,16.83
2022-09-20T07:24:29.839Z,18.61
2022-09-20T07:26:57.814Z,18.15
2022-09-20T07:29:24.518Z,16.57
2022-09-20T07:31:51.447Z,15.85
2022-09-20T07:34:20.743Z,15.62
2022-09-20T07:36:48.226Z,15.31
2022-09-20T07:39:14.686Z,15.03
2022-09-20T07:41:41.441Z,14.79
2022-09-20T07:44:24.788Z,14.57
2022-09-20T07:46:51.747Z,14.31
2022-09-20T07:49:18.865Z,14.18
2022-09-20T07:51:45.296Z,14.06
2022-09-20T07:54:11.865Z,13.99
2022-09-20T07:56:38.582Z,13.95
2022-09-20T07:59:05.047Z,14.00
2022-09-20T08:01:32.041Z,14.03
2022-09-20T08:03:58.514Z,13.95
2022-09-20T08:06:25.167Z,13.91
2022-09-20T08:08:51.776Z,13.84
2022-09-20T08:11:27.858Z,13.71
2022-09-20T08:14:11.069Z,13.53
2022-09-20T08:16:43.581Z,13.49
2022-09-20T08:19:15.771Z,13.45
2022-09-20T08:21:42.109Z,13.48
2022-09-20T08:24:10.792Z,13.41
2022-09-20T08:26:37.243Z,13.49
2022-09-20T08:29:05.710Z,13.64
2022-09-20T08:31:36.999Z,13.73
2022-09-20T08:34:09.584Z,13.75
2022-09-20T08:36:41.046Z,13.95
2022-09-20T08:42:36.673Z,14.31
2022-09-20T08:45:34.437Z,14.73
2022-09-20T08:48:06.497Z,14.53
2022-09-20T08:50:34.540Z,14.40
2022-09-20T08:53:05.331Z,14.28
2022-09-20T08:55:39.970Z,14.35
2022-09-20T08:58:10.922Z,14.62
2022-09-20T09:00:40.335Z,14.47
2022-09-20T09:03:12.168Z,14.36
2022-09-20T09:05:46.619Z,14.50
2022-09-20T09:08:43.244Z,14.93
2022-09-20T09:11:15.243Z,15.34
2022-09-20T09:13:53.568Z,15.76
2022-09-20T09:16:27.239Z,16.03
2022-09-20T09:18:55.843Z,15.80
2022-09-20T09:21:28.867Z,15.74
2022-09-20T09:24:09.608Z,15.80
2022-09-20T09:26:39.089Z,15.89
2022-09-20T09:29:18.050Z,16.00
2022-09-20T09:31:46.688Z,16.08
2022-09-20T09:34:39.070Z,16.12
2022-09-20T09:37:07.026Z,16.22
2022-09-20T09:39:38.223Z,16.42
2022-09-20T09:42:23.691Z,16.54
2022-09-20T09:44:50.593Z,16.41
2022-09-20T09:47:28.307Z,16.49
2022-09-20T09:50:02.624Z,16.61
2022-09-20T09:52:33.547Z,16.67
2022-09-20T09:55:05.057Z,16.55
2022-09-20T09:57:45.624Z,16.27
2022-09-20T10:00:20.646Z,15.96
2022-09-20T10:03:06.876Z,15.77
2022-09-20T10:05:48.947Z,15.63
2022-09-20T10:08:21.439Z,15.62
2022-09-20T10:11:18.652Z,15.72
2022-09-20T10:14:10.581Z,15.82
2022-09-20T10:16:52.987Z,15.84
2022-09-20T10:19:25.873Z,15.94
2022-09-20T10:22:11.001Z,16.08
2022-09-20T10:24:55.773Z,16.07
2022-09-20T10:27:33.837Z,15.96
2022-09-20T10:30:08.871Z,16.15
2022-09-20T10:32:50.301Z,16.40
2022-09-20T10:35:33.023Z,16.63
2022-09-20T10:38:14.333Z,16.98
2022-09-20T10:41:31.459Z,16.89
2022-09-20T10:44:31.843Z,16.98
2022-09-20T10:47:11.205Z,16.92
2022-09-20T10:50:15.408Z,17.09
2022-09-20T10:52:54.756Z,16.95
2022-09-20T10:55:39.396Z,17.06
2022-09-20T10:58:33.373Z,17.07
2022-09-20T11:01:23.186Z,17.14
2022-09-20T11:03:52.710Z,17.38
2022-09-20T11:06:32.867Z,17.54
2022-09-20T11:09:02.072Z,17.52
2022-09-20T11:11:35.580Z,17.44
2022-09-20T11:14:10.984Z,17.39
2022-09-20T11:16:53.937Z,17.48
2022-09-20T11:19:48.357Z,17.43
2022-09-20T11:22:40.500Z,17.48
2022-09-20T11:25:20.382Z,17.63
2022-09-20T11:28:05.488Z,17.67
2022-09-20T11:30:36.442Z,17.63
2022-09-20T11:33:15.180Z,17.41
2022-09-20T11:35:55.174Z,17.54
2022-09-20T11:38:37.755Z,17.35
2022-09-20T11:41:19.571Z,17.53
2022-09-20T11:43:48.039Z,17.58
2022-09-20T11:46:36.475Z,17.79
2022-09-20T11:49:11.146Z,17.84
2022-09-20T11:51:50.811Z,17.84
2022-09-20T11:54:44.975Z,17.86
2022-09-20T11:57:18.652Z,17.73
2022-09-20T12:00:02.928Z,17.71
2022-09-20T12:02:45.265Z,17.81
2022-09-20T12:05:41.475Z,17.81
2022-09-20T12:08:22.364Z,17.59
2022-09-20T12:10:59.909Z,17.53
2022-09-20T12:13:28.024Z,17.61
2022-09-20T12:16:12.993Z,17.57
2022-09-20T12:18:54.343Z,17.46
2022-09-20T12:21:22.302Z,17.35
2022-09-20T12:23:57.885Z,17.35
2022-09-20T12:26:27.385Z,17.23
2022-09-20T12:28:59.766Z,17.05
2022-09-20T12:31:29.288Z,17.06
2022-09-20T12:34:11.734Z,16.91
2022-09-20T12:36:44.160Z,16.84
2022-09-20T12:39:17.513Z,17.04
2022-09-20T12:41:49.964Z,17.12
2022-09-20T12:44:57.880Z,17.13
2022-09-20T12:47:33.380Z,17.15
2022-09-20T12:50:31.550Z,17.15
2022-09-20T12:53:00.488Z,16.74
2022-09-20T12:55:33.550Z,16.59
2022-09-20T12:58:12.260Z,16.55
2022-09-20T13:00:45.158Z,16.72
2022-09-20T13:03:36.825Z,16.95
2022-09-20T13:06:11.819Z,17.04
2022-09-20T13:09:00.193Z,17.14
2022-09-20T13:11:27.351Z,16.98
2022-09-20T13:14:08.917Z,17.01
2022-09-20T13:16:54.324Z,17.09
2022-09-20T13:19:31.167Z,16.89
2022-09-20T13:22:05.723Z,16.71
2022-09-20T13:24:45.289Z,16.52
2022-09-20T13:27:50.939Z,16.60
2022-09-20T13:30:35.309Z,16.43
2022-09-20T13:33:21.983Z,16.57
2022-09-20T13:35:52.342Z,17.30
2022-09-20T13:38:24.314Z,17.70
2022-09-20T13:40:52.665Z,17.59
2022-09-20T13:43:32.998Z,17.54
2022-09-20T13:46:07.937Z,17.45
2022-09-20T13:48:34.719Z,17.33
2022-09-20T13:51:01.135Z,17.23
2022-09-20T13:53:41.646Z,16.98
2022-09-20T13:56:21.458Z,16.89
2022-09-20T13:58:49.580Z,16.97
2022-09-20T14:01:24.183Z,16.95
2022-09-20T14:03:50.661Z,16.95
2022-09-20T14:06:17.371Z,16.88
2022-09-20T14:08:49.783Z,16.69
2022-09-20T14:11:19.698Z,16.60
2022-09-20T14:14:08.115Z,16.58
2022-09-20T14:16:39.799Z,16.58
2022-09-20T14:19:10.069Z,16.56
2022-09-20T14:21:38.417Z,16.64
2022-09-20T14:24:28.762Z,16.75
2022-09-20T14:27:05.941Z,17.20
2022-09-20T14:29:50.086Z,17.45
2022-09-20T14:32:19.445Z,17.36
2022-09-20T14:34:47.133Z,17.30
2022-09-20T14:37:26.238Z,17.32
2022-09-20T14:39:56.431Z,17.30
2022-09-20T14:42:30.990Z,17.28
2022-09-20T14:44:58.424Z,16.99
2022-09-20T14:47:39.153Z,16.90
2022-09-20T14:50:30.229Z,16.92
2022-09-20T14:53:05.180Z,16.89
2022-09-20T14:55:37.094Z,16.89
2022-09-20T14:58:13.669Z,17.17
2022-09-20T15:01:16.183Z,17.49
2022-09-20T15:03:42.843Z,17.72
2022-09-20T15:06:13.518Z,17.94
2022-09-20T15:08:45.425Z,17.64
2022-09-20T15:11:14.942Z,17.69
2022-09-20T15:13:41.288Z,17.77
2022-09-20T15:16:08.087Z,17.65
2022-09-20T15:21:04.001Z,17.20
2022-09-20T15:23:30.531Z,16.79
2022-09-20T15:25:57.166Z,16.55
2022-09-20T15:28:24.039Z,16.38
2022-09-20T15:30:51.727Z,16.13
2022-09-20T15:33:20.618Z,15.96
2022-09-20T15:35:47.391Z,16.18
2022-09-20T15:38:15.133Z,16.26
2022-09-20T15:40:49.100Z,16.08
2022-09-20T15:43:17.887Z,15.95
2022-09-20T15:45:55.043Z,16.30
2022-09-20T15:48:25.640Z,16.46
2022-09-20T15:51:01.791Z,16.32
2022-09-20T15:53:36.248Z,16.26
2022-09-20T15:56:05.404Z,16.08
2022-09-20T15:58:36.283Z,15.94
2022-09-20T16:01:09.420Z,15.94
2022-09-20T16:03:36.225Z,16.14
2022-09-20T16:06:06.113Z,16.06
2022-09-20T16:08:34.803Z,16.16
2022-09-20T16:12:01.571Z,16.14
2022-09-20T16:14:28.540Z,16.05
2022-09-20T16:16:56.570Z,15.90
2022-09-20T16:19:24.894Z,15.72
2022-09-20T16:21:58.223Z,15.39
2022-09-20T16:24:31.013Z,15.16
2022-09-20T16:26:58.637Z,14.98
2022-09-20T16:29:26.013Z,14.87
2022-09-20T16:31:54.420Z,14.75
2022-09-20T16:34:21.861Z,14.67
2022-09-20T16:36:50.982Z,14.58
2022-09-20T16:39:18.772Z,14.49
2022-09-20T16:45:27.524Z,14.27
2022-09-20T16:47:57.948Z,14.21
2022-09-20T16:50:24.547Z,14.13
2022-09-20T16:52:51.157Z,14.06
2022-09-20T16:55:19.587Z,14.05
2022-09-20T16:57:49.358Z,14.03
2022-09-20T17:00:22.261Z,13.97
2022-09-20T17:02:50.143Z,13.93
2022-09-20T17:05:17.400Z,13.88
2022-09-20T17:07:44.598Z,13.83
2022-09-20T17:10:11.245Z,13.80
2022-09-20T17:12:46.663Z,13.73
2022-09-20T17:15:13.625Z,13.63
2022-09-20T17:17:40.125Z,13.59
2022-09-20T17:20:07.719Z,13.51
2022-09-20T17:22:34.419Z,13.44
2022-09-20T17:25:02.362Z,13.36
2022-09-20T17:27:28.934Z,13.31
2022-09-20T17:29:55.405Z,13.26
2022-09-20T17:32:21.851Z,13.17
2022-09-20T17:34:48.276Z,13.09
2022-09-20T17:37:14.666Z,13.02
2022-09-20T17:39:41.153Z,12.94
2022-09-20T17:42:07.587Z,12.87
2022-09-20T17:44:36.766Z,12.78
2022-09-20T17:47:03.517Z,12.72
2022-09-20T17:49:31.296Z,12.66
2022-09-20T17:51:57.694Z,12.61
2022-09-20T17:54:24.724Z,12.57
2022-09-20T17:56:53.654Z,12.52
2022-09-20T17:59:20.383Z,12.47
2022-09-20T18:01:49.893Z,12.42
2022-09-20T18:04:16.388Z,12.37
2022-09-20T18:06:48.817Z,12.34
2022-09-20T18:09:20.518Z,12.29
2022-09-20T18:11:49.816Z,12.26
2022-09-20T18:14:18.458Z,12.22
2022-09-20T18:16:45.110Z,12.23
2022-09-20T18:19:12.111Z,12.22
2022-09-20T18:21:41.039Z,12.21
2022-09-20T18:24:09.770Z,12.22
2022-09-20T18:26:37.972Z,12.20
2022-09-20T18:29:12.745Z,12.14
2022-09-20T18:31:54.261Z,12.13
2022-09-20T18:34:26.710Z,12.11
2022-09-20T18:36:55.498Z,12.09
2022-09-20T18:39:22.970Z,12.09
2022-09-20T18:41:50.550Z,12.07
2022-09-20T18:44:18.452Z,12.04
2022-09-20T18:46:45.834Z,12.00
2022-09-20T18:49:14.964Z,11.96
2022-09-20T18:51:42.750Z,11.94
2022-09-20T18:54:10.552Z,11.88
2022-09-20T18:56:39.822Z,11.84
2022-09-20T18:59:12.829Z,11.82
2022-09-20T19:01:59.669Z,11.78
2022-09-20T19:05:00.126Z,11.75
2022-09-20T19:08:00.209Z,11.70
2022-09-20T19:10:43.333Z,11.66
2022-09-20T19:13:24.827Z,11.63
2022-09-20T19:16:11.185Z,11.60
2022-09-20T19:18:58.916Z,11.57
2022-09-20T19:21:53.771Z,11.54
2022-09-20T19:24:39.097Z,11.52
2022-09-20T19:27:05.840Z,11.51
2022-09-20T19:29:33.207Z,11.52
2022-09-20T19:32:00.838Z,11.54
2022-09-20T19:34:32.097Z,11.56
2022-09-20T19:37:24.560Z,11.58
2022-09-20T19:40:08.819Z,11.59
2022-09-20T19:42:53.777Z,11.60
2022-09-20T19:45:33.645Z,11.62
2022-09-20T19:48:25.906Z,11.62
2022-09-20T19:50:53.049Z,11.60
2022-09-20T19:53:22.207Z,11.61
2022-09-20T19:55:54.713Z,11.62
2022-09-20T19:58:21.322Z,11.63
2022-09-20T20:00:49.630Z,11.61
2022-09-20T20:03:16.910Z,11.61
2022-09-20T20:05:50.888Z,11.62
2022-09-20T20:08:30.193Z,11.61
2022-09-20T20:11:08.338Z,11.61
2022-09-20T20:14:04.808Z,11.61
2022-09-20T20:16:40.402Z,11.62
2022-09-20T20:19:31.947Z,11.63
2022-09-20T20:22:03.083Z,11.63
2022-09-20T20:24:50.549Z,11.60
2022-09-20T20:27:17.335Z,11.61
2022-09-20T20:29:44.170Z,11.59
2022-09-20T20:32:10.611Z,11.58
2022-09-20T20:34:37.192Z,11.57
2022-09-20T20:37:07.375Z,11.56
2022-09-20T20:39:34.246Z,11.54
2022-09-20T20:42:02.838Z,11.52
2022-09-20T20:44:35.490Z,11.49
2022-09-20T20:47:03.176Z,11.50
2022-09-20T20:49:29.700Z,11.48
2022-09-20T20:52:02.847Z,11.49
2022-09-20T20:54:29.318Z,11.51
2022-09-20T20:56:55.716Z,11.49
2022-09-20T20:59:22.202Z,11.45
2022-09-20T21:01:48.606Z,11.42
2022-09-20T21:04:18.278Z,11.42
2022-09-20T21:06:44.958Z,11.40
2022-09-20T21:09:11.863Z,11.40
2022-09-20T21:11:44.296Z,11.39
2022-09-20T21:14:12.461Z,11.38
2022-09-20T21:16:44.406Z,11.39
2022-09-20T21:19:14.858Z,11.39
2022-09-20T21:21:43.432Z,11.40
2022-09-20T21:24:12.317Z,11.38
2022-09-20T21:26:39.752Z,11.37
2022-09-20T21:29:10.970Z,11.38
2022-09-20T21:31:42.758Z,11.37
2022-09-20T21:34:11.402Z,11.35
2022-09-20T21:36:39.463Z,11.33
2022-09-20T21:39:06.327Z,11.33
2022-09-20T21:41:35.181Z,11.33
2022-09-20T21:44:03.125Z,11.34
2022-09-20T21:46:39.919Z,11.36
2022-09-20T21:49:11.335Z,11.34
2022-09-20T21:51:39.259Z,11.33
2022-09-20T21:54:06.020Z,11.32
2022-09-20T21:56:34.731Z,11.30
2022-09-20T21:59:03.803Z,11.29
2022-09-20T22:01:35.323Z,11.28
2022-09-20T22:04:12.466Z,11.28
2022-09-20T22:06:41.395Z,11.27
2022-09-20T22:09:16.035Z,11.26
2022-09-20T22:11:44.784Z,11.25
2022-09-20T22:14:12.901Z,11.20
2022-09-20T22:16:41.349Z,11.15
2022-09-20T22:19:09.903Z,11.13
2022-09-20T22:21:45.243Z,11.11
2022-09-20T22:24:13.570Z,11.10
2022-09-20T22:26:48.549Z,11.07
2022-09-20T22:29:17.401Z,11.07
2022-09-20T22:31:45.643Z,11.04
2022-09-20T22:34:20.654Z,10.99
2022-09-20T22:36:48.085Z,10.93
2022-09-20T22:39:15.206Z,10.91
2022-09-20T22:41:42.636Z,10.88
2022-09-20T22:44:10.306Z,10.82
2022-09-20T22:46:38.057Z,10.78
2022-09-20T22:49:05.991Z,10.75
2022-09-20T22:51:33.422Z,10.72
2022-09-20T22:54:00.864Z,10.71
2022-09-20T22:56:29.470Z,10.69
2022-09-20T22:59:00.074Z,10.65
2022-09-20T23:01:29.511Z,10.61
2022-09-20T23:03:58.838Z,10.55
2022-09-20T23:06:34.800Z,10.46
2022-09-20T23:09:03.826Z,10.37
2022-09-20T23:11:30.786Z,10.30
2022-09-20T23:14:00.101Z,10.23
2022-09-20T23:16:28.911Z,10.16
2022-09-20T23:18:57.512Z,10.11
2022-09-20T23:21:24.618Z,10.03
2022-09-20T23:24:02.668Z,9.94
2022-09-20T23:26:31.828Z,9.87
2022-09-20T23:28:59.409Z,9.79
2022-09-20T23:31:27.372Z,9.72
2022-09-20T23:34:00.210Z,9.67
2022-09-20T23:36:29.349Z,9.61
2022-09-20T23:38:57.027Z,9.54
2022-09-20T23:41:25.986Z,9.46
2022-09-20T23:43:52.867Z,9.40
2022-09-20T23:46:21.084Z,9.35
2022-09-20T23:48:47.854Z,9.29
2022-09-20T23:51:17.231Z,9.22
2022-09-20T23:53:44.964Z,9.14
2022-09-20T23:56:12.923Z,9.07
2022-09-20T23:58:41.549Z,9.04
